createdAt,value
2016-08-26T00:00:01.295Z,83.82
2016-08-26T00:01:00.903Z,83.72
2016-08-26T00:02:01.052Z,83.82
2016-08-26T00:03:01.962Z,84.06
2016-08-26T00:04:00.444Z,83.97
2016-08-26T00:05:01.294Z,83.39
2016-08-26T00:06:00.645Z,83.82
2016-08-26T00:07:01.205Z,84.55
2016-08-26T00:08:00.787Z,84.45
2016-08-26T00:09:02.150Z,84.26
2016-08-26T00:10:02.128Z,83.39
2016-08-26T00:11:00.773Z,83.72
2016-08-26T00:12:01.872Z,83.05
2016-08-26T00:13:02.063Z,82.86
2016-08-26T00:14:02.725Z,82.76
2016-08-26T00:15:02.143Z,83.63
2016-08-26T00:16:01.106Z,84.01
2016-08-26T00:17:02.234Z,83.3
2016-08-26T00:18:01.394Z,82.76
2016-08-26T00:19:01.214Z,82.48
2016-08-26T00:20:01.015Z,82.67
2016-08-26T00:21:01.861Z,83.53
2016-08-26T00:22:00.767Z,84.83
2016-08-26T00:23:01.248Z,85.41
2016-08-26T00:24:02.207Z,86.27
2016-08-26T00:25:01.325Z,86.8
2016-08-26T00:26:01.859Z,87.08
2016-08-26T00:27:03.640Z,86.9
2016-08-26T00:28:01.093Z,87.18
2016-08-26T00:29:01.469Z,86.8
2016-08-26T00:30:01.308Z,85.36
2016-08-26T00:31:02.140Z,84.74
2016-08-26T00:32:01.112Z,84.74
2016-08-26T00:33:01.427Z,83.59
2016-08-26T00:34:01.705Z,83.39
2016-08-26T00:35:01.187Z,82.76
2016-08-26T00:36:02.075Z,82.48
2016-08-26T00:37:01.621Z,82.29
2016-08-26T00:38:02.603Z,82.67
2016-08-26T00:39:01.646Z,83.34
2016-08-26T00:40:02.990Z,84.55
2016-08-26T00:41:01.419Z,84.06
2016-08-26T00:42:02.037Z,84.64
2016-08-26T00:43:01.379Z,82.92
2016-08-26T00:44:02.505Z,83.59
2016-08-26T00:45:02.028Z,83.39
2016-08-26T00:46:03.635Z,83.82
2016-08-26T00:47:02.336Z,83.11
2016-08-26T00:48:02.971Z,83.44
2016-08-26T00:49:02.632Z,83.63
2016-08-26T00:50:02.574Z,83.78
2016-08-26T00:51:01.823Z,83.2
2016-08-26T00:52:01.918Z,83.97
2016-08-26T00:53:01.969Z,84.55
2016-08-26T00:54:02.930Z,84.64
2016-08-26T00:55:01.894Z,83.78
2016-08-26T00:56:03.421Z,83.05
2016-08-26T00:57:02.495Z,82.19
2016-08-26T00:58:02.961Z,82.09
2016-08-26T00:59:01.906Z,81.9
2016-08-26T01:00:02.275Z,82.76
2016-08-26T01:01:02.472Z,82.38
2016-08-26T01:02:02.102Z,83.82
2016-08-26T01:03:01.951Z,83.97
2016-08-26T01:04:01.778Z,85.88
2016-08-26T01:05:02.407Z,86.04
2016-08-26T01:06:02.654Z,86.61
2016-08-26T01:07:04.286Z,86.9
2016-08-26T01:08:03.572Z,86.8
2016-08-26T01:09:02.177Z,86.8
2016-08-26T01:10:03.561Z,87.18
2016-08-26T01:11:03.275Z,88
2016-08-26T01:12:05.118Z,87.81
2016-08-26T01:13:04.063Z,87.62
2016-08-26T01:14:03.227Z,87.66
2016-08-26T01:15:03.103Z,87.62
2016-08-26T01:16:03.396Z,88.13
2016-08-26T01:17:02.721Z,87.9
2016-08-26T01:18:04.680Z,87.66
2016-08-26T01:19:03.246Z,87.37
2016-08-26T01:20:03.981Z,88.23
2016-08-26T01:21:03.628Z,87.95
2016-08-26T01:22:03.543Z,87.14
2016-08-26T01:23:02.843Z,87.18
2016-08-26T01:24:02.588Z,88.19
2016-08-26T01:25:04.636Z,88.09
2016-08-26T01:26:03.485Z,87.81
2016-08-26T01:27:02.979Z,87.52
2016-08-26T01:28:04.251Z,87.62
2016-08-26T01:29:02.593Z,87.9
2016-08-26T01:30:03.176Z,88.86
2016-08-26T01:31:03.386Z,88
2016-08-26T01:32:03.118Z,87.62
2016-08-26T01:33:05.050Z,87.14
2016-08-26T01:34:04.224Z,88.38
2016-08-26T01:35:03.869Z,87.9
2016-08-26T01:36:04.184Z,88.57
2016-08-26T01:37:03.699Z,88.57
2016-08-26T01:38:04.740Z,88.29
2016-08-26T01:39:03.624Z,88
2016-08-26T01:40:04.569Z,87.04
2016-08-26T01:41:04.072Z,86.66
2016-08-26T01:42:05.009Z,86.37
2016-08-26T01:43:05.635Z,86.08
2016-08-26T01:44:04.711Z,86.08
2016-08-26T01:45:03.822Z,86.61
2016-08-26T01:46:04.419Z,85.46
2016-08-26T01:47:03.786Z,86.04
2016-08-26T01:48:04.218Z,86.85
2016-08-26T01:49:04.152Z,88.86
2016-08-26T01:50:05.252Z,89.43
2016-08-26T01:51:03.924Z,89.72
2016-08-26T01:52:03.161Z,88.95
2016-08-26T01:53:03.852Z,88
2016-08-26T01:54:03.639Z,87.52
2016-08-26T01:55:03.547Z,88.19
2016-08-26T01:56:03.732Z,88.19
2016-08-26T01:57:03.692Z,87.9
2016-08-26T01:58:04.118Z,87.14
2016-08-26T01:59:04.262Z,86.76
2016-08-26T02:00:04.684Z,86.94
2016-08-26T02:01:04.584Z,86.76
2016-08-26T02:02:03.669Z,86.41
2016-08-26T02:03:03.812Z,86.47
2016-08-26T02:04:04.455Z,86.9
2016-08-26T02:05:05.172Z,86.61
2016-08-26T02:06:04.822Z,86.8
2016-08-26T02:07:04.733Z,86.13
2016-08-26T02:08:04.927Z,86.41
2016-08-26T02:09:04.561Z,85.94
2016-08-26T02:10:05.158Z,85.84
2016-08-26T02:11:04.556Z,85.94
2016-08-26T02:12:05.179Z,86.04
2016-08-26T02:13:03.618Z,86.32
2016-08-26T02:14:04.882Z,86.41
2016-08-26T02:15:05.735Z,85.94
2016-08-26T02:16:03.978Z,85.84
2016-08-26T02:17:03.926Z,86.7
2016-08-26T02:18:04.302Z,87.62
2016-08-26T02:19:04.306Z,87.71
2016-08-26T02:20:04.621Z,87.62
2016-08-26T02:21:03.848Z,87.62
2016-08-26T02:22:04.246Z,88
2016-08-26T02:23:04.941Z,88
2016-08-26T02:24:04.948Z,87.33
2016-08-26T02:25:04.076Z,86.57
2016-08-26T02:26:04.197Z,87.81
2016-08-26T02:27:04.640Z,87.71
2016-08-26T02:28:04.331Z,87.81
2016-08-26T02:29:04.051Z,87.71
2016-08-26T02:30:05.879Z,87.81
2016-08-26T02:31:04.544Z,88
2016-08-26T02:32:04.968Z,87.71
2016-08-26T02:33:04.448Z,87.23
2016-08-26T02:34:04.839Z,86.76
2016-08-26T02:35:05.153Z,86.66
2016-08-26T02:36:04.603Z,86.66
2016-08-26T02:37:04.479Z,86.28
2016-08-26T02:38:04.418Z,85.03
2016-08-26T02:39:04.519Z,85.61
2016-08-26T02:40:04.867Z,86.08
2016-08-26T02:41:04.454Z,86.28
2016-08-26T02:42:04.508Z,86.76
2016-08-26T02:43:04.621Z,86.94
2016-08-26T02:44:04.842Z,86.76
2016-08-26T02:45:04.756Z,86.76
2016-08-26T02:46:04.822Z,87.43
2016-08-26T02:47:05.325Z,87.9
2016-08-26T02:48:05.681Z,87.14
2016-08-26T02:49:05.085Z,87.81
2016-08-26T02:50:04.940Z,86.85
2016-08-26T02:51:05.036Z,86.66
2016-08-26T02:52:04.699Z,87.23
2016-08-26T02:53:04.778Z,87.23
2016-08-26T02:54:07.231Z,86.76
2016-08-26T02:55:05.134Z,86.94
2016-08-26T02:56:05.137Z,87.23
2016-08-26T02:57:06.099Z,87.23
2016-08-26T02:58:06.307Z,86.66
2016-08-26T02:59:06.621Z,86.47
2016-08-26T03:00:05.094Z,86.13
2016-08-26T03:01:05.693Z,85.27
2016-08-26T03:02:06.200Z,84.59
2016-08-26T03:03:05.544Z,84.31
2016-08-26T03:04:06.402Z,84.12
2016-08-26T03:05:05.638Z,84.06
2016-08-26T03:06:05.232Z,84.16
2016-08-26T03:07:05.312Z,84.92
2016-08-26T03:08:06.027Z,84.64
2016-08-26T03:09:06.500Z,85.02
2016-08-26T03:10:06.534Z,83.68
2016-08-26T03:11:06.300Z,84.45
2016-08-26T03:12:05.053Z,84.45
2016-08-26T03:13:05.928Z,83.87
2016-08-26T03:14:06.299Z,83.49
2016-08-26T03:15:06.468Z,83.87
2016-08-26T03:16:05.124Z,83.3
2016-08-26T03:17:06.082Z,83.3
2016-08-26T03:18:06.881Z,82.82
2016-08-26T03:19:06.047Z,84.06
2016-08-26T03:20:06.703Z,84.74
2016-08-26T03:21:06.442Z,85.36
2016-08-26T03:22:06.390Z,85.94
2016-08-26T03:23:06.301Z,85.94
2016-08-26T03:24:06.679Z,86.7
2016-08-26T03:25:05.031Z,86.9
2016-08-26T03:26:05.206Z,86.8
2016-08-26T03:27:07.641Z,86.7
2016-08-26T03:28:05.675Z,86.66
2016-08-26T03:29:06.157Z,86.76
2016-08-26T03:30:06.363Z,85.36
2016-08-26T03:31:05.723Z,84.41
2016-08-26T03:32:06.947Z,84.83
2016-08-26T03:33:06.441Z,84.64
2016-08-26T03:34:06.348Z,84.69
2016-08-26T03:35:07.113Z,85.17
2016-08-26T03:36:06.903Z,85.17
2016-08-26T03:37:06.665Z,86.99
2016-08-26T03:38:06.784Z,88
2016-08-26T03:39:06.086Z,88
2016-08-26T03:40:07.137Z,87.81
2016-08-26T03:41:06.786Z,85.8
2016-08-26T03:42:06.081Z,85.75
2016-08-26T03:43:07.451Z,85.75
2016-08-26T03:44:06.800Z,87.18
2016-08-26T03:45:07.525Z,87.81
2016-08-26T03:46:08.067Z,88.29
2016-08-26T03:47:07.449Z,88
2016-08-26T03:48:05.963Z,88.48
2016-08-26T03:49:06.592Z,89.24
2016-08-26T03:50:06.729Z,89.81
2016-08-26T03:51:07.203Z,90.16
2016-08-26T03:52:06.773Z,90.16
2016-08-26T03:53:06.723Z,89.87
2016-08-26T03:54:06.577Z,89.48
2016-08-26T03:55:06.419Z,90.16
2016-08-26T03:56:06.772Z,90.73
2016-08-26T03:57:07.191Z,90.06
2016-08-26T03:58:06.783Z,90.16
2016-08-26T03:59:06.369Z,89.67
2016-08-26T04:00:07.037Z,89.87
2016-08-26T04:01:07.384Z,88.53
2016-08-26T04:02:06.473Z,87.81
2016-08-26T04:03:07.355Z,87.52
2016-08-26T04:04:07.725Z,87.23
2016-08-26T04:05:06.418Z,86.37
2016-08-26T04:06:06.693Z,86.57
2016-08-26T04:07:06.244Z,85.41
2016-08-26T04:08:07.001Z,85.46
2016-08-26T04:09:07.155Z,85.17
2016-08-26T04:10:07.055Z,84.59
2016-08-26T04:11:07.364Z,84.88
2016-08-26T04:12:07.640Z,85.27
2016-08-26T04:13:07.086Z,85.65
2016-08-26T04:14:06.231Z,86.61
2016-08-26T04:15:06.696Z,86.04
2016-08-26T04:16:07.373Z,85.94
2016-08-26T04:17:06.906Z,85.55
2016-08-26T04:18:06.835Z,86.8
2016-08-26T04:19:07.501Z,86.76
2016-08-26T04:20:06.875Z,85.8
2016-08-26T04:21:07.129Z,86.13
2016-08-26T04:22:07.667Z,86.13
2016-08-26T04:23:08.079Z,86.22
2016-08-26T04:24:07.832Z,86.61
2016-08-26T04:25:09.187Z,86.7
2016-08-26T04:26:07.690Z,85.75
2016-08-26T04:27:06.572Z,86.18
2016-08-26T04:28:07.337Z,86.8
2016-08-26T04:29:08.051Z,86.76
2016-08-26T04:30:06.892Z,87.04
2016-08-26T04:31:07.538Z,87.04
2016-08-26T04:32:07.110Z,86.76
2016-08-26T04:33:08.423Z,86.57
2016-08-26T04:34:07.433Z,86.47
2016-08-26T04:35:07.257Z,86.37
2016-08-26T04:36:08.445Z,86.66
2016-08-26T04:37:07.474Z,86.08
2016-08-26T04:38:07.450Z,86.76
2016-08-26T04:39:08.163Z,87.62
2016-08-26T04:40:07.452Z,87.33
2016-08-26T04:41:07.833Z,87.23
2016-08-26T04:42:08.519Z,85.89
2016-08-26T04:43:07.423Z,86.47
2016-08-26T04:44:08.096Z,86.13
2016-08-26T04:45:07.982Z,86.32
2016-08-26T04:46:07.901Z,86.04
2016-08-26T04:47:08.958Z,86.22
2016-08-26T04:48:07.309Z,86.13
2016-08-26T04:49:09.019Z,86.04
2016-08-26T04:50:08.168Z,86.8
2016-08-26T04:51:09.519Z,86.61
2016-08-26T04:52:07.903Z,86.61
2016-08-26T04:53:08.300Z,86.04
2016-08-26T04:54:08.486Z,86.8
2016-08-26T04:55:08.282Z,85.84
2016-08-26T04:56:08.250Z,87.14
2016-08-26T04:57:08.122Z,85.89
2016-08-26T04:58:09.095Z,86.8
2016-08-26T04:59:08.074Z,86.7
2016-08-26T05:00:08.045Z,86.61
2016-08-26T05:01:07.841Z,87.56
2016-08-26T05:02:09.288Z,87.43
2016-08-26T05:03:08.485Z,87.71
2016-08-26T05:04:09.128Z,87.71
2016-08-26T05:05:09.078Z,88.38
2016-08-26T05:06:08.301Z,88.19
2016-08-26T05:07:07.786Z,88.57
2016-08-26T05:08:09.414Z,88.76
2016-08-26T05:09:08.990Z,88.57
2016-08-26T05:10:07.715Z,88.67
2016-08-26T05:11:08.778Z,88.86
2016-08-26T05:12:08.964Z,88.67
2016-08-26T05:13:09.136Z,89.43
2016-08-26T05:14:08.088Z,89.91
2016-08-26T05:15:09.072Z,89.72
2016-08-26T05:16:09.520Z,89.72
2016-08-26T05:17:08.369Z,89.72
2016-08-26T05:18:08.845Z,89.91
2016-08-26T05:19:09.071Z,90.39
2016-08-26T05:20:08.854Z,90.06
2016-08-26T05:21:08.811Z,90.06
2016-08-26T05:22:10.018Z,89.87
2016-08-26T05:23:08.840Z,89.2
2016-08-26T05:24:09.451Z,89.62
2016-08-26T05:25:09.870Z,89.24
2016-08-26T05:26:09.460Z,88.67
2016-08-26T05:27:09.079Z,88.76
2016-08-26T05:28:08.069Z,88.38
2016-08-26T05:29:08.411Z,87.66
2016-08-26T05:30:07.908Z,87.47
2016-08-26T05:31:08.108Z,86.8
2016-08-26T05:32:08.539Z,87.47
2016-08-26T05:33:09.502Z,87.08
2016-08-26T05:34:08.983Z,86.8
2016-08-26T05:35:08.899Z,85.94
2016-08-26T05:36:08.780Z,85.12
2016-08-26T05:37:08.859Z,85.12
2016-08-26T05:38:09.808Z,85.5
2016-08-26T05:39:08.622Z,85.21
2016-08-26T05:40:09.388Z,84.92
2016-08-26T05:41:09.350Z,84.55
2016-08-26T05:42:10.301Z,84.35
2016-08-26T05:43:11.644Z,84.74
2016-08-26T05:44:08.872Z,84.45
2016-08-26T05:45:10.117Z,85.12
2016-08-26T05:46:10.172Z,84.64
2016-08-26T05:47:09.422Z,84.06
2016-08-26T05:48:09.018Z,84.16
2016-08-26T05:49:08.792Z,84.16
2016-08-26T05:50:09.730Z,84.3
2016-08-26T05:51:09.780Z,84.78
2016-08-26T05:52:09.523Z,85.12
2016-08-26T05:53:09.826Z,85.21
2016-08-26T05:54:09.840Z,84.74
2016-08-26T05:55:09.252Z,85.31
2016-08-26T05:56:09.994Z,84.49
2016-08-26T05:57:08.849Z,85.12
2016-08-26T05:58:09.729Z,84.78
2016-08-26T05:59:09.641Z,83.92
2016-08-26T06:00:08.869Z,83.92
2016-08-26T06:01:09.698Z,82.86
2016-08-26T06:02:09.729Z,83.53
2016-08-26T06:03:09.715Z,82.19
2016-08-26T06:04:09.647Z,82.76
2016-08-26T06:05:10.203Z,81.9
2016-08-26T06:06:09.306Z,81.43
2016-08-26T06:07:09.531Z,82
2016-08-26T06:08:09.504Z,82.23
2016-08-26T06:09:09.337Z,81.95
2016-08-26T06:10:09.903Z,82.23
2016-08-26T06:11:09.523Z,81.27
2016-08-26T06:12:10.148Z,81.18
2016-08-26T06:13:09.537Z,81.08
2016-08-26T06:14:09.564Z,81.22
2016-08-26T06:15:10.171Z,80.74
2016-08-26T06:16:09.502Z,80.45
2016-08-26T06:17:09.319Z,81.51
2016-08-26T06:18:09.532Z,81.79
2016-08-26T06:19:09.499Z,82.08
2016-08-26T06:20:10.206Z,81.02
2016-08-26T06:21:09.316Z,78.63
2016-08-26T06:22:10.945Z,79.21
2016-08-26T06:23:10.206Z,77.71
2016-08-26T06:24:10.359Z,77.61
2016-08-26T06:25:10.014Z,75.92
2016-08-26T06:26:10.773Z,75.45
2016-08-26T06:27:10.557Z,74.96
2016-08-26T06:28:09.770Z,75.29
2016-08-26T06:29:11.120Z,75.15
2016-08-26T06:30:09.654Z,74.43
2016-08-26T06:31:09.917Z,73.85
2016-08-26T06:32:09.791Z,72.89
2016-08-26T06:33:10.113Z,73.02
2016-08-26T06:34:10.761Z,73.69
2016-08-26T06:35:10.568Z,72.64
2016-08-26T06:36:11.379Z,72.34
2016-08-26T06:37:10.383Z,71.77
2016-08-26T06:38:11.250Z,72.44
2016-08-26T06:39:10.341Z,72.06
2016-08-26T06:40:10.504Z,72
2016-08-26T06:41:11.089Z,71.04
2016-08-26T06:42:11.981Z,69.79
2016-08-26T06:43:10.286Z,68.96
2016-08-26T06:44:10.834Z,68.76
2016-08-26T06:45:10.836Z,67.45
2016-08-26T06:46:10.860Z,66.68
2016-08-26T06:47:11.103Z,66.3
2016-08-26T06:48:10.599Z,66.49
2016-08-26T06:49:12.238Z,66.3
2016-08-26T06:50:11.143Z,66.68
2016-08-26T06:51:12.602Z,66.49
2016-08-26T06:52:11.053Z,68.13
2016-08-26T06:53:11.103Z,68.41
2016-08-26T06:54:10.952Z,66.88
2016-08-26T06:55:10.323Z,67.19
2016-08-26T06:56:11.085Z,66.33
2016-08-26T06:57:10.993Z,66.33
2016-08-26T06:58:10.570Z,64.31
2016-08-26T06:59:10.590Z,63.28
2016-08-26T07:00:11.007Z,63.18
2016-08-26T07:01:11.043Z,62.63
2016-08-26T07:02:12.428Z,62.25
2016-08-26T07:03:10.869Z,62.15
2016-08-26T07:04:10.789Z,62.99
2016-08-26T07:05:10.893Z,62.83
2016-08-26T07:06:11.009Z,62.54
2016-08-26T07:07:10.681Z,61.77
2016-08-26T07:08:11.036Z,61.13
2016-08-26T07:09:11.103Z,60.83
2016-08-26T07:10:10.959Z,60.83
2016-08-26T07:11:11.774Z,61.22
2016-08-26T07:12:11.135Z,61.13
2016-08-26T07:13:10.973Z,60.68
2016-08-26T07:14:12.390Z,59.03
2016-08-26T07:15:12.295Z,58.87
2016-08-26T07:16:11.935Z,58.1
2016-08-26T07:17:12.872Z,58.1
2016-08-26T07:18:11.934Z,58.87
2016-08-26T07:19:12.201Z,57.32
2016-08-26T07:20:12.662Z,57.62
2016-08-26T07:21:10.918Z,57.62
2016-08-26T07:22:11.215Z,56.77
2016-08-26T07:23:11.790Z,56.68
2016-08-26T07:24:12.007Z,56.68
2016-08-26T07:25:10.989Z,55.9
2016-08-26T07:26:12.042Z,56.68
2016-08-26T07:27:10.983Z,55.74
2016-08-26T07:28:11.145Z,56.32
2016-08-26T07:29:12.275Z,57.57
2016-08-26T07:30:12.222Z,57.45
2016-08-26T07:31:12.500Z,56.71
2016-08-26T07:32:12.412Z,55.26
2016-08-26T07:33:11.978Z,53.25
2016-08-26T07:34:13.696Z,52.22
2016-08-26T07:35:13.929Z,52.51
2016-08-26T07:36:12.029Z,51.83
2016-08-26T07:37:12.636Z,52.12
2016-08-26T07:38:12.390Z,52.02
2016-08-26T07:39:13.304Z,52.02
2016-08-26T07:40:12.183Z,53.09
2016-08-26T07:41:12.280Z,52.02
2016-08-26T07:42:13.220Z,51.44
2016-08-26T07:43:12.467Z,52.34
2016-08-26T07:44:13.442Z,51.37
2016-08-26T07:45:12.231Z,50.98
2016-08-26T07:46:13.114Z,51.37
2016-08-26T07:47:12.180Z,49.92
2016-08-26T07:48:11.640Z,50.62
2016-08-26T07:49:13.859Z,51.18
2016-08-26T07:50:12.420Z,51.08
2016-08-26T07:51:13.898Z,52.36
2016-08-26T07:52:12.459Z,50.24
2016-08-26T07:53:12.699Z,48.64
2016-08-26T07:54:12.470Z,49.61
2016-08-26T07:55:12.897Z,50.45
2016-08-26T07:56:12.834Z,49.12
2016-08-26T07:57:13.150Z,50.02
2016-08-26T07:58:13.646Z,48.74
2016-08-26T07:59:13.865Z,48.95
2016-08-26T08:00:14.299Z,49.51
2016-08-26T08:01:12.957Z,49.12
2016-08-26T08:02:13.551Z,49.02
2016-08-26T08:03:12.433Z,49.15
2016-08-26T08:04:12.675Z,49.02
2016-08-26T08:05:12.771Z,48.27
2016-08-26T08:06:13.538Z,48.76
2016-08-26T08:07:12.404Z,48.27
2016-08-26T08:08:12.572Z,47.02
2016-08-26T08:09:13.117Z,46.77
2016-08-26T08:10:12.906Z,46.5
2016-08-26T08:11:13.898Z,46.89
2016-08-26T08:12:13.088Z,46.98
2016-08-26T08:13:12.366Z,45.75
2016-08-26T08:14:13.351Z,45.17
2016-08-26T08:15:12.908Z,44.31
2016-08-26T08:16:13.977Z,43.15
2016-08-26T08:17:12.655Z,43.36
2016-08-26T08:18:14.431Z,42.49
2016-08-26T08:19:13.126Z,43.05
2016-08-26T08:20:13.252Z,43.34
2016-08-26T08:21:13.459Z,43.34
2016-08-26T08:22:13.783Z,41.69
2016-08-26T08:23:12.920Z,41.88
2016-08-26T08:24:13.225Z,41.88
2016-08-26T08:25:13.204Z,42.49
2016-08-26T08:26:15.054Z,43.05
2016-08-26T08:27:13.953Z,42.33
2016-08-26T08:28:14.065Z,41.59
2016-08-26T08:29:13.840Z,42.05
2016-08-26T08:30:13.755Z,40.91
2016-08-26T08:31:14.932Z,42.31
2016-08-26T08:32:13.942Z,43.41
2016-08-26T08:33:15.017Z,42.05
2016-08-26T08:34:13.710Z,41.32
2016-08-26T08:35:13.811Z,40.64
2016-08-26T08:36:14.916Z,40.56
2016-08-26T08:37:14.855Z,40.15
2016-08-26T08:38:14.555Z,39.67
2016-08-26T08:39:13.251Z,40.48
2016-08-26T08:40:14.595Z,39.8
2016-08-26T08:41:13.699Z,38.56
2016-08-26T08:42:14.542Z,38.93
2016-08-26T08:43:13.522Z,38.64
2016-08-26T08:44:15.041Z,38.81
2016-08-26T08:45:14.015Z,37.95
2016-08-26T08:46:13.933Z,38.67
2016-08-26T08:47:14.688Z,38.93
2016-08-26T08:48:15.361Z,38.95
2016-08-26T08:49:15.142Z,38.65
2016-08-26T08:50:13.493Z,39.61
2016-08-26T08:51:15.299Z,37.6
2016-08-26T08:52:13.935Z,38.26
2016-08-26T08:53:14.865Z,36.25
2016-08-26T08:54:14.609Z,36.27
2016-08-26T08:55:14.444Z,37.93
2016-08-26T08:56:14.287Z,38.48
2016-08-26T08:57:14.499Z,36.88
2016-08-26T08:58:14.887Z,36.65
2016-08-26T08:59:14.558Z,34.44
2016-08-26T09:00:14.335Z,34.83
2016-08-26T09:01:15.496Z,35.82
2016-08-26T09:02:14.737Z,36.18
2016-08-26T09:03:15.793Z,36.18
2016-08-26T09:04:16.486Z,35.14
2016-08-26T09:05:14.669Z,33.98
2016-08-26T09:06:14.799Z,34.88
2016-08-26T09:07:15.186Z,34.73
2016-08-26T09:08:14.797Z,35.16
2016-08-26T09:09:14.579Z,34.44
2016-08-26T09:10:14.784Z,35.3
2016-08-26T09:11:16.202Z,35.88
2016-08-26T09:12:17.282Z,36.25
2016-08-26T09:13:15.921Z,34.61
2016-08-26T09:14:15.318Z,35.31
2016-08-26T09:15:15.137Z,35.22
2016-08-26T09:16:15.523Z,35.96
2016-08-26T09:17:15.235Z,34.81
2016-08-26T09:18:15.431Z,34.81
2016-08-26T09:19:14.921Z,33.69
2016-08-26T09:20:15.267Z,35.74
2016-08-26T09:21:14.855Z,33.97
2016-08-26T09:22:15.685Z,32.24
2016-08-26T09:23:15.453Z,32.17
2016-08-26T09:24:15.462Z,31.32
2016-08-26T09:25:16.911Z,32.84
2016-08-26T09:26:15.183Z,33.56
2016-08-26T09:27:15.838Z,34.61
2016-08-26T09:28:16.265Z,33.01
2016-08-26T09:29:15.520Z,31.46
2016-08-26T09:30:15.107Z,31.29
2016-08-26T09:31:16.640Z,31.29
2016-08-26T09:32:16.158Z,31.99
2016-08-26T09:33:16.990Z,32.84
2016-08-26T09:34:15.297Z,33.62
2016-08-26T09:35:15.513Z,33.12
2016-08-26T09:36:15.274Z,32.82
2016-08-26T09:37:16.035Z,31.62
2016-08-26T09:38:16.558Z,30.91
2016-08-26T09:39:16.248Z,30.74
2016-08-26T09:40:16.373Z,30.94
2016-08-26T09:41:15.845Z,31.44
2016-08-26T09:42:15.848Z,30.82
2016-08-26T09:43:15.715Z,30.18
2016-08-26T09:44:17.140Z,29.6
2016-08-26T09:45:15.945Z,31.23
2016-08-26T09:46:17.171Z,30.04
2016-08-26T09:47:16.597Z,27.25
2016-08-26T09:48:16.223Z,28.55
2016-08-26T09:49:17.166Z,30.98
2016-08-26T09:50:15.980Z,30.05
2016-08-26T09:51:16.866Z,32.6
2016-08-26T09:52:15.998Z,31
2016-08-26T09:53:17.330Z,30.04
2016-08-26T09:54:16.867Z,30.16
2016-08-26T09:55:16.462Z,30.18
2016-08-26T09:56:16.447Z,31.44
2016-08-26T09:57:17.749Z,31.23
2016-08-26T09:58:16.879Z,30.52
2016-08-26T09:59:17.195Z,30.69
2016-08-26T10:00:16.481Z,32.06
2016-08-26T10:01:17.080Z,32.55
2016-08-26T10:02:17.421Z,29.74
2016-08-26T10:03:17.001Z,30.21
2016-08-26T10:04:16.864Z,30.57
2016-08-26T10:05:17.606Z,28.33
2016-08-26T10:06:16.475Z,27.87
2016-08-26T10:07:17.450Z,27.4
2016-08-26T10:08:17.036Z,28.67
2016-08-26T10:09:17.981Z,28.95
2016-08-26T10:10:17.705Z,28.3
2016-08-26T10:11:17.679Z,30.01
2016-08-26T10:12:16.901Z,27.47
2016-08-26T10:13:16.903Z,27.26
2016-08-26T10:14:17.352Z,28.06
2016-08-26T10:15:18.294Z,27.4
2016-08-26T10:16:17.650Z,25.73
2016-08-26T10:17:17.862Z,25.85
2016-08-26T10:18:17.642Z,26.15
2016-08-26T10:19:17.282Z,26.25
2016-08-26T10:20:17.393Z,26.65
2016-08-26T10:21:18.310Z,27.7
2016-08-26T10:22:17.448Z,28.37
2016-08-26T10:23:18.492Z,26.59
2016-08-26T10:24:17.748Z,27.81
2016-08-26T10:25:19.425Z,27.39
2016-08-26T10:26:17.611Z,27.12
2016-08-26T10:27:17.528Z,26.75
2016-08-26T10:28:17.599Z,27.75
2016-08-26T10:29:17.948Z,26.48
2016-08-26T10:30:17.185Z,26.24
2016-08-26T10:31:17.301Z,25.92
2016-08-26T10:32:18.193Z,24.26
2016-08-26T10:33:17.706Z,25.76
2016-08-26T10:34:18.234Z,27.28
2016-08-26T10:35:19.100Z,27.29
2016-08-26T10:36:18.142Z,27.88
2016-08-26T10:37:19.745Z,27.19
2016-08-26T10:38:17.731Z,25.26
2016-08-26T10:39:18.528Z,26.23
2016-08-26T10:40:18.022Z,26.69
2016-08-26T10:41:17.612Z,27.45
2016-08-26T10:42:18.708Z,27.46
2016-08-26T10:43:18.283Z,26.79
2016-08-26T10:44:19.075Z,26.51
2016-08-26T10:45:18.934Z,26.04
2016-08-26T10:46:18.468Z,26.69
2016-08-26T10:47:18.674Z,26.41
2016-08-26T10:48:18.192Z,26.42
2016-08-26T10:49:18.683Z,26.52
2016-08-26T10:50:19.429Z,24.86
2016-08-26T10:51:20.018Z,24.49
2016-08-26T10:52:18.385Z,24.11
2016-08-26T10:53:19.365Z,24.32
2016-08-26T10:54:19.378Z,25.61
2016-08-26T10:55:18.561Z,26.21
2016-08-26T10:56:18.786Z,25.92
2016-08-26T10:57:18.490Z,25.89
2016-08-26T10:58:19.896Z,25.73
2016-08-26T10:59:19.127Z,24.35
2016-08-26T11:00:19.058Z,24.87
2016-08-26T11:01:19.888Z,26.58
2016-08-26T11:02:18.836Z,25.54
2016-08-26T11:03:18.699Z,25.95
2016-08-26T11:04:18.804Z,23.51
2016-08-26T11:05:19.042Z,23.46
2016-08-26T11:06:18.837Z,23.53
2016-08-26T11:07:19.587Z,22.96
2016-08-26T11:08:19.622Z,25.22
2016-08-26T11:09:19.057Z,25.15
2016-08-26T11:10:19.128Z,23.73
2016-08-26T11:11:19.138Z,25.03
2016-08-26T11:12:19.880Z,23.28
2016-08-26T11:13:19.508Z,22.96
2016-08-26T11:14:20.450Z,25.03
2016-08-26T11:15:20.357Z,23.6
2016-08-26T11:16:19.852Z,23.55
2016-08-26T11:17:19.673Z,23.57
2016-08-26T11:18:20.685Z,21.11
2016-08-26T11:19:19.777Z,20.44
2016-08-26T11:20:21.192Z,23.9
2016-08-26T11:21:19.502Z,24.3
2016-08-26T11:22:20.707Z,24.4
2016-08-26T11:23:21.282Z,25.77
2016-08-26T11:24:20.277Z,23.89
2016-08-26T11:25:21.545Z,23.75
2016-08-26T11:26:20.425Z,23.95
2016-08-26T11:27:20.797Z,23.27
2016-08-26T11:28:20.028Z,24.54
2016-08-26T11:29:20.146Z,23.24
2016-08-26T11:30:20.055Z,21.73
2016-08-26T11:31:21.016Z,22.85
2016-08-26T11:32:20.360Z,21.22
2016-08-26T11:33:19.972Z,20.83
2016-08-26T11:34:20.808Z,22.2
2016-08-26T11:35:21.578Z,22.71
2016-08-26T11:36:20.038Z,24.32
2016-08-26T11:37:20.827Z,24.71
2016-08-26T11:38:20.459Z,24.22
2016-08-26T11:39:20.498Z,26.36
2016-08-26T11:40:21.015Z,24.4
2016-08-26T11:41:21.007Z,24.6
2016-08-26T11:42:20.476Z,23.03
2016-08-26T11:43:21.376Z,19.64
2016-08-26T11:44:21.656Z,19.68
2016-08-26T11:45:21.658Z,19.79
2016-08-26T11:46:21.817Z,22.82
2016-08-26T11:47:20.818Z,22.58
2016-08-26T11:48:21.955Z,23.19
2016-08-26T11:49:20.764Z,20.53
2016-08-26T11:50:21.845Z,19.37
2016-08-26T11:51:21.293Z,18.8
2016-08-26T11:52:21.622Z,23.73
2016-08-26T11:53:21.925Z,23.63
2016-08-26T11:54:22.235Z,21.78
2016-08-26T11:55:21.679Z,20.52
2016-08-26T11:56:22.048Z,21.06
2016-08-26T11:57:22.117Z,20.94
2016-08-26T11:58:22.577Z,19.76
2016-08-26T11:59:21.250Z,20.14
2016-08-26T12:00:21.876Z,21.42
2016-08-26T12:01:21.465Z,21.14
2016-08-26T12:02:21.229Z,22.31
2016-08-26T12:03:22.149Z,23.06
2016-08-26T12:04:22.163Z,24.8
2016-08-26T12:05:21.277Z,23.69
2016-08-26T12:06:21.974Z,22.64
2016-08-26T12:07:21.190Z,21.71
2016-08-26T12:08:22.405Z,20.81
2016-08-26T12:09:22.063Z,18.99
2016-08-26T12:10:23.501Z,19.21
2016-08-26T12:11:22.024Z,19.9
2016-08-26T12:12:22.342Z,18.7
2016-08-26T12:13:22.125Z,20.67
2016-08-26T12:14:22.358Z,22.77
2016-08-26T12:15:22.184Z,23.25
2016-08-26T12:16:23.633Z,24.41
2016-08-26T12:17:22.673Z,24.38
2016-08-26T12:18:24.509Z,23.49
2016-08-26T12:19:23.547Z,23.39
2016-08-26T12:20:22.315Z,22.31
2016-08-26T12:21:22.825Z,19.82
2016-08-26T12:22:23.158Z,19.07
2016-08-26T12:23:22.179Z,20.89
2016-08-26T12:24:23.445Z,21.14
2016-08-26T12:25:22.244Z,21.37
2016-08-26T12:26:22.878Z,21.53
2016-08-26T12:27:22.577Z,19.26
2016-08-26T12:28:22.814Z,19.79
2016-08-26T12:29:22.418Z,19.77
2016-08-26T12:30:22.972Z,18.62
2016-08-26T12:31:23.394Z,17.65
2016-08-26T12:32:23.188Z,16.48
2016-08-26T12:33:23.689Z,17.86
2016-08-26T12:34:22.747Z,19.79
2016-08-26T12:35:24.526Z,20.91
2016-08-26T12:36:22.900Z,22.56
2016-08-26T12:37:22.901Z,22.27
2016-08-26T12:38:23.683Z,21.76
2016-08-26T12:39:22.639Z,21.84
2016-08-26T12:40:23.228Z,21.19
2016-08-26T12:41:24.789Z,22.99
2016-08-26T12:42:22.656Z,22.05
2016-08-26T12:43:23.256Z,21.89
2016-08-26T12:44:24.066Z,20.01
2016-08-26T12:45:23.595Z,20.16
2016-08-26T12:46:23.711Z,21.81
2016-08-26T12:47:23.259Z,19.57
2016-08-26T12:48:23.489Z,18.58
2016-08-26T12:49:24.755Z,18.1
2016-08-26T12:50:23.053Z,16.17
2016-08-26T12:51:24.812Z,16.97
2016-08-26T12:52:23.915Z,16.7
2016-08-26T12:53:23.546Z,17.47
2016-08-26T12:54:23.911Z,17.86
2016-08-26T12:55:23.882Z,19.19
2016-08-26T12:56:23.514Z,18.3